sensor_id;sensor_type;location;lat;lon;timestamp;temperature;humidity
26691;DHT22;14307;51.718;8.938;2022-10-23T00:01:44;10.60;99.90
26691;DHT22;14307;51.718;8.938;2022-10-23T00:04:22;10.50;99.90
26691;DHT22;14307;51.718;8.938;2022-10-23T00:06:50;10.60;99.90
26691;DHT22;14307;51.718;8.938;2022-10-23T00:09:21;10.50;99.90
26691;DHT22;14307;51.718;8.938;2022-10-23T00:11:48;10.50;99.90
26691;DHT22;14307;51.718;8.938;2022-10-23T00:14:18;10.40;99.90
26691;DHT22;14307;51.718;8.938;2022-10-23T00:16:45;10.50;99.90
26691;DHT22;14307;51.718;8.938;2022-10-23T00:19:12;10.60;99.90
26691;DHT22;14307;51.718;8.938;2022-10-23T00:21:39;10.60;99.90
26691;DHT22;14307;51.718;8.938;2022-10-23T00:24:06;10.60;99.90
26691;DHT22;14307;51.718;8.938;2022-10-23T00:26:35;10.60;99.90
26691;DHT22;14307;51.718;8.938;2022-10-23T00:29:03;10.70;99.90
26691;DHT22;14307;51.718;8.938;2022-10-23T00:31:30;10.70;99.90
26691;DHT22;14307;51.718;8.938;2022-10-23T00:33:58;10.70;99.90
26691;DHT22;14307;51.718;8.938;2022-10-23T00:36:25;10.80;99.90
26691;DHT22;14307;51.718;8.938;2022-10-23T00:38:52;10.70;99.90
26691;DHT22;14307;51.718;8.938;2022-10-23T00:41:21;10.70;99.90
26691;DHT22;14307;51.718;8.938;2022-10-23T00:44:00;10.60;99.90
26691;DHT22;14307;51.718;8.938;2022-10-23T00:46:27;10.50;99.90
26691;DHT22;14307;51.718;8.938;2022-10-23T00:48:55;10.50;99.90
26691;DHT22;14307;51.718;8.938;2022-10-23T00:51:23;10.50;99.90
26691;DHT22;14307;51.718;8.938;2022-10-23T00:53:55;10.70;99.90
26691;DHT22;14307;51.718;8.938;2022-10-23T00:56:43;10.70;99.90
26691;DHT22;14307;51.718;8.938;2022-10-23T00:59:10;10.70;99.90
26691;DHT22;14307;51.718;8.938;2022-10-23T01:01:37;10.80;99.90
26691;DHT22;14307;51.718;8.938;2022-10-23T01:04:05;10.90;99.90
26691;DHT22;14307;51.718;8.938;2022-10-23T01:11:48;10.80;99.90
26691;DHT22;14307;51.718;8.938;2022-10-23T01:20:06;10.40;99.90
26691;DHT22;14307;51.718;8.938;2022-10-23T01:28:49;10.30;99.90
26691;DHT22;14307;51.718;8.938;2022-10-23T01:31:44;10.20;99.90
26691;DHT22;14307;51.718;8.938;2022-10-23T01:34:17;10.20;99.90
26691;DHT22;14307;51.718;8.938;2022-10-23T01:36:47;10.20;99.90
26691;DHT22;14307;51.718;8.938;2022-10-23T01:39:20;10.30;99.90
26691;DHT22;14307;51.718;8.938;2022-10-23T01:41:55;10.30;99.90
26691;DHT22;14307;51.718;8.938;2022-10-23T01:44:49;10.10;99.90
26691;DHT22;14307;51.718;8.938;2022-10-23T01:47:21;10.20;99.90
26691;DHT22;14307;51.718;8.938;2022-10-23T01:49:56;10.20;99.90
26691;DHT22;14307;51.718;8.938;2022-10-23T01:52:24;10.10;99.90
26691;DHT22;14307;51.718;8.938;2022-10-23T01:54:54;10.00;99.90
26691;DHT22;14307;51.718;8.938;2022-10-23T01:57:22;9.80;99.90
26691;DHT22;14307;51.718;8.938;2022-10-23T01:59:56;9.90;99.90
26691;DHT22;14307;51.718;8.938;2022-10-23T02:02:25;9.90;99.90
26691;DHT22;14307;51.718;8.938;2022-10-23T02:05:23;9.80;99.90
26691;DHT22;14307;51.718;8.938;2022-10-23T02:07:48;9.70;99.90
26691;DHT22;14307;51.718;8.938;2022-10-23T02:10:15;9.50;99.90
26691;DHT22;14307;51.718;8.938;2022-10-23T02:13:02;9.30;99.90
26691;DHT22;14307;51.718;8.938;2022-10-23T02:15:38;9.50;99.90
26691;DHT22;14307;51.718;8.938;2022-10-23T02:18:14;9.60;99.90
26691;DHT22;14307;51.718;8.938;2022-10-23T02:20:54;9.60;99.90
26691;DHT22;14307;51.718;8.938;2022-10-23T02:24:02;9.60;99.90
26691;DHT22;14307;51.718;8.938;2022-10-23T02:26:42;9.60;99.90
26691;DHT22;14307;51.718;8.938;2022-10-23T02:31:44;9.50;99.90
26691;DHT22;14307;51.718;8.938;2022-10-23T02:34:11;9.60;99.90
26691;DHT22;14307;51.718;8.938;2022-10-23T02:36:38;9.60;99.90
26691;DHT22;14307;51.718;8.938;2022-10-23T02:39:04;9.50;99.90
26691;DHT22;14307;51.718;8.938;2022-10-23T02:44:16;9.50;99.90
26691;DHT22;14307;51.718;8.938;2022-10-23T02:53:04;9.60;99.90
26691;DHT22;14307;51.718;8.938;2022-10-23T03:00:53;9.50;99.90
26691;DHT22;14307;51.718;8.938;2022-10-23T03:03:31;9.50;99.90
26691;DHT22;14307;51.718;8.938;2022-10-23T03:05:59;9.40;99.90
26691;DHT22;14307;51.718;8.938;2022-10-23T03:08:26;9.20;99.90
26691;DHT22;14307;51.718;8.938;2022-10-23T03:10:53;9.10;99.90
26691;DHT22;14307;51.718;8.938;2022-10-23T03:13:22;9.20;99.90
26691;DHT22;14307;51.718;8.938;2022-10-23T03:15:48;9.00;99.90
26691;DHT22;14307;51.718;8.938;2022-10-23T03:18:15;9.10;99.90
26691;DHT22;14307;51.718;8.938;2022-10-23T03:20:48;9.10;99.90
26691;DHT22;14307;51.718;8.938;2022-10-23T03:23:15;9.20;99.90
26691;DHT22;14307;51.718;8.938;2022-10-23T03:25:42;9.20;99.90
26691;DHT22;14307;51.718;8.938;2022-10-23T03:28:09;9.20;99.90
26691;DHT22;14307;51.718;8.938;2022-10-23T03:30:36;9.20;99.90
26691;DHT22;14307;51.718;8.938;2022-10-23T03:33:03;9.20;99.90
26691;DHT22;14307;51.718;8.938;2022-10-23T03:35:33;9.30;99.90
26691;DHT22;14307;51.718;8.938;2022-10-23T03:38:00;9.30;99.90
26691;DHT22;14307;51.718;8.938;2022-10-23T03:40:27;9.30;99.90
26691;DHT22;14307;51.718;8.938;2022-10-23T03:42:53;9.40;99.90
26691;DHT22;14307;51.718;8.938;2022-10-23T03:45:20;9.40;99.90
26691;DHT22;14307;51.718;8.938;2022-10-23T03:47:47;9.40;99.90
26691;DHT22;14307;51.718;8.938;2022-10-23T03:50:17;9.40;99.90
26691;DHT22;14307;51.718;8.938;2022-10-23T03:52:44;9.30;99.90
26691;DHT22;14307;51.718;8.938;2022-10-23T03:55:11;9.30;99.90
26691;DHT22;14307;51.718;8.938;2022-10-23T03:57:38;9.20;99.90
26691;DHT22;14307;51.718;8.938;2022-10-23T04:00:06;9.20;99.90
26691;DHT22;14307;51.718;8.938;2022-10-23T04:02:42;9.20;99.90
26691;DHT22;14307;51.718;8.938;2022-10-23T04:05:09;9.20;99.90
26691;DHT22;14307;51.718;8.938;2022-10-23T04:07:38;9.20;99.90
26691;DHT22;14307;51.718;8.938;2022-10-23T04:10:05;9.40;99.90
26691;DHT22;14307;51.718;8.938;2022-10-23T04:12:33;9.30;99.90
26691;DHT22;14307;51.718;8.938;2022-10-23T04:15:00;9.40;99.90
26691;DHT22;14307;51.718;8.938;2022-10-23T04:17:27;9.40;99.90
26691;DHT22;14307;51.718;8.938;2022-10-23T04:19:58;9.30;99.90
26691;DHT22;14307;51.718;8.938;2022-10-23T04:22:26;9.30;99.90
26691;DHT22;14307;51.718;8.938;2022-10-23T04:24:54;9.30;99.90
26691;DHT22;14307;51.718;8.938;2022-10-23T04:27:21;9.20;99.90
26691;DHT22;14307;51.718;8.938;2022-10-23T04:29:48;9.10;99.90
26691;DHT22;14307;51.718;8.938;2022-10-23T04:32:15;9.20;99.90
26691;DHT22;14307;51.718;8.938;2022-10-23T04:34:43;9.20;99.90
26691;DHT22;14307;51.718;8.938;2022-10-23T04:37:09;9.20;99.90
26691;DHT22;14307;51.718;8.938;2022-10-23T04:39:37;9.30;99.90
26691;DHT22;14307;51.718;8.938;2022-10-23T04:42:03;9.40;99.90
26691;DHT22;14307;51.718;8.938;2022-10-23T04:44:30;9.40;99.90
26691;DHT22;14307;51.718;8.938;2022-10-23T04:46:57;9.40;99.90
26691;DHT22;14307;51.718;8.938;2022-10-23T04:49:24;9.40;99.90
26691;DHT22;14307;51.718;8.938;2022-10-23T04:52:09;9.30;99.90
26691;DHT22;14307;51.718;8.938;2022-10-23T04:54:56;9.30;99.90
26691;DHT22;14307;51.718;8.938;2022-10-23T04:57:30;9.20;99.90
26691;DHT22;14307;51.718;8.938;2022-10-23T05:00:11;9.20;99.90
26691;DHT22;14307;51.718;8.938;2022-10-23T05:02:47;9.20;99.90
26691;DHT22;14307;51.718;8.938;2022-10-23T05:05:16;9.20;99.90
26691;DHT22;14307;51.718;8.938;2022-10-23T05:08:03;9.30;99.90
26691;DHT22;14307;51.718;8.938;2022-10-23T05:10:40;9.30;99.90
26691;DHT22;14307;51.718;8.938;2022-10-23T05:13:13;9.00;99.90
26691;DHT22;14307;51.718;8.938;2022-10-23T05:15:39;9.20;99.90
26691;DHT22;14307;51.718;8.938;2022-10-23T05:18:16;9.30;99.90
26691;DHT22;14307;51.718;8.938;2022-10-23T05:20:44;9.30;99.90
26691;DHT22;14307;51.718;8.938;2022-10-23T05:23:14;9.30;99.90
26691;DHT22;14307;51.718;8.938;2022-10-23T05:25:51;9.30;99.90
26691;DHT22;14307;51.718;8.938;2022-10-23T05:28:18;9.30;99.90
26691;DHT22;14307;51.718;8.938;2022-10-23T05:30:45;9.20;99.90
26691;DHT22;14307;51.718;8.938;2022-10-23T05:33:14;9.20;99.90
26691;DHT22;14307;51.718;8.938;2022-10-23T05:35:41;9.20;99.90
26691;DHT22;14307;51.718;8.938;2022-10-23T05:38:11;9.10;99.90
26691;DHT22;14307;51.718;8.938;2022-10-23T05:40:38;9.20;99.90
26691;DHT22;14307;51.718;8.938;2022-10-23T05:43:16;9.30;99.90
26691;DHT22;14307;51.718;8.938;2022-10-23T05:45:49;9.30;99.90
26691;DHT22;14307;51.718;8.938;2022-10-23T05:48:34;9.30;99.90
26691;DHT22;14307;51.718;8.938;2022-10-23T05:51:21;9.40;99.90
26691;DHT22;14307;51.718;8.938;2022-10-23T05:54:19;9.40;99.90
26691;DHT22;14307;51.718;8.938;2022-10-23T05:56:58;9.50;99.90
26691;DHT22;14307;51.718;8.938;2022-10-23T05:59:40;9.40;99.90
26691;DHT22;14307;51.718;8.938;2022-10-23T06:02:45;9.60;99.90
26691;DHT22;14307;51.718;8.938;2022-10-23T06:05:29;9.60;99.90
26691;DHT22;14307;51.718;8.938;2022-10-23T06:08:13;9.80;99.90
26691;DHT22;14307;51.718;8.938;2022-10-23T06:10:40;9.90;99.90
26691;DHT22;14307;51.718;8.938;2022-10-23T06:13:09;10.00;99.90
26691;DHT22;14307;51.718;8.938;2022-10-23T06:15:35;10.30;99.90
26691;DHT22;14307;51.718;8.938;2022-10-23T06:18:07;10.50;99.90
26691;DHT22;14307;51.718;8.938;2022-10-23T06:20:39;10.60;99.90
26691;DHT22;14307;51.718;8.938;2022-10-23T06:23:16;10.70;99.90
26691;DHT22;14307;51.718;8.938;2022-10-23T06:26:02;10.70;99.90
26691;DHT22;14307;51.718;8.938;2022-10-23T06:28:37;10.90;99.90
26691;DHT22;14307;51.718;8.938;2022-10-23T06:31:09;11.10;99.90
26691;DHT22;14307;51.718;8.938;2022-10-23T06:33:36;11.10;99.90
26691;DHT22;14307;51.718;8.938;2022-10-23T06:36:05;11.20;99.90
26691;DHT22;14307;51.718;8.938;2022-10-23T06:38:33;11.30;99.90
26691;DHT22;14307;51.718;8.938;2022-10-23T06:41:03;11.30;99.90
26691;DHT22;14307;51.718;8.938;2022-10-23T06:43:36;11.40;99.90
26691;DHT22;14307;51.718;8.938;2022-10-23T06:46:24;11.50;99.90
26691;DHT22;14307;51.718;8.938;2022-10-23T06:49:15;11.50;99.90
26691;DHT22;14307;51.718;8.938;2022-10-23T06:51:47;11.50;99.90
26691;DHT22;14307;51.718;8.938;2022-10-23T06:54:15;11.50;99.90
26691;DHT22;14307;51.718;8.938;2022-10-23T06:56:57;11.50;99.90
26691;DHT22;14307;51.718;8.938;2022-10-23T06:59:34;11.40;99.90
26691;DHT22;14307;51.718;8.938;2022-10-23T07:02:02;11.50;99.90
26691;DHT22;14307;51.718;8.938;2022-10-23T07:04:29;11.40;99.90
26691;DHT22;14307;51.718;8.938;2022-10-23T07:06:56;11.50;99.90
26691;DHT22;14307;51.718;8.938;2022-10-23T07:09:29;11.70;99.90
26691;DHT22;14307;51.718;8.938;2022-10-23T07:11:56;11.80;99.90
26691;DHT22;14307;51.718;8.938;2022-10-23T07:14:34;11.90;99.90
26691;DHT22;14307;51.718;8.938;2022-10-23T07:17:02;11.90;99.90
26691;DHT22;14307;51.718;8.938;2022-10-23T07:19:29;12.00;99.90
26691;DHT22;14307;51.718;8.938;2022-10-23T07:21:59;12.00;99.90
26691;DHT22;14307;51.718;8.938;2022-10-23T07:24:48;12.10;99.90
26691;DHT22;14307;51.718;8.938;2022-10-23T07:27:24;12.10;99.90
26691;DHT22;14307;51.718;8.938;2022-10-23T07:29:54;12.20;99.90
26691;DHT22;14307;51.718;8.938;2022-10-23T07:32:22;12.20;99.90
26691;DHT22;14307;51.718;8.938;2022-10-23T07:35:24;12.30;99.90
26691;DHT22;14307;51.718;8.938;2022-10-23T07:37:58;12.30;99.90
26691;DHT22;14307;51.718;8.938;2022-10-23T07:40:29;12.30;99.90
26691;DHT22;14307;51.718;8.938;2022-10-23T07:42:56;12.30;99.90
26691;DHT22;14307;51.718;8.938;2022-10-23T07:45:22;12.30;99.90
26691;DHT22;14307;51.718;8.938;2022-10-23T07:47:50;12.40;99.90
26691;DHT22;14307;51.718;8.938;2022-10-23T07:50:19;12.40;99.90
26691;DHT22;14307;51.718;8.938;2022-10-23T07:52:46;12.50;99.90
26691;DHT22;14307;51.718;8.938;2022-10-23T07:55:16;12.40;99.90
26691;DHT22;14307;51.718;8.938;2022-10-23T07:57:49;12.50;99.90
26691;DHT22;14307;51.718;8.938;2022-10-23T08:00:27;12.50;99.90
26691;DHT22;14307;51.718;8.938;2022-10-23T08:03:03;12.50;99.90
26691;DHT22;14307;51.718;8.938;2022-10-23T08:05:31;12.60;99.90
26691;DHT22;14307;51.718;8.938;2022-10-23T08:08:00;12.70;99.90
26691;DHT22;14307;51.718;8.938;2022-10-23T08:10:27;12.80;99.90
26691;DHT22;14307;51.718;8.938;2022-10-23T08:12:54;12.90;99.90
26691;DHT22;14307;51.718;8.938;2022-10-23T08:15:36;13.00;99.90
26691;DHT22;14307;51.718;8.938;2022-10-23T08:18:13;13.10;99.90
26691;DHT22;14307;51.718;8.938;2022-10-23T08:20:45;13.30;99.90
26691;DHT22;14307;51.718;8.938;2022-10-23T08:23:15;13.40;99.90
26691;DHT22;14307;51.718;8.938;2022-10-23T08:25:45;13.40;99.90
26691;DHT22;14307;51.718;8.938;2022-10-23T08:28:14;13.60;99.90
26691;DHT22;14307;51.718;8.938;2022-10-23T08:30:51;13.60;99.90
26691;DHT22;14307;51.718;8.938;2022-10-23T08:33:17;13.60;99.90
26691;DHT22;14307;51.718;8.938;2022-10-23T08:35:44;13.70;99.90
26691;DHT22;14307;51.718;8.938;2022-10-23T08:38:11;13.70;99.90
26691;DHT22;14307;51.718;8.938;2022-10-23T08:40:47;13.70;99.90
26691;DHT22;14307;51.718;8.938;2022-10-23T08:43:46;13.70;99.90
26691;DHT22;14307;51.718;8.938;2022-10-23T08:46:40;13.80;99.90
26691;DHT22;14307;51.718;8.938;2022-10-23T08:49:29;13.80;99.90
26691;DHT22;14307;51.718;8.938;2022-10-23T08:52:11;13.80;99.90
26691;DHT22;14307;51.718;8.938;2022-10-23T08:57:25;13.80;99.90
26691;DHT22;14307;51.718;8.938;2022-10-23T09:00:03;13.90;99.90
26691;DHT22;14307;51.718;8.938;2022-10-23T09:05:00;14.00;99.90
26691;DHT22;14307;51.718;8.938;2022-10-23T09:10:33;14.00;99.90
26691;DHT22;14307;51.718;8.938;2022-10-23T09:13:33;14.00;99.90
26691;DHT22;14307;51.718;8.938;2022-10-23T09:16:26;13.90;99.90
26691;DHT22;14307;51.718;8.938;2022-10-23T09:18:57;13.90;99.90
26691;DHT22;14307;51.718;8.938;2022-10-23T09:21:26;14.00;99.90
26691;DHT22;14307;51.718;8.938;2022-10-23T09:23:53;14.00;99.90
26691;DHT22;14307;51.718;8.938;2022-10-23T09:26:20;14.20;99.90
26691;DHT22;14307;51.718;8.938;2022-10-23T09:28:54;14.60;99.90
26691;DHT22;14307;51.718;8.938;2022-10-23T09:31:22;14.80;99.90
26691;DHT22;14307;51.718;8.938;2022-10-23T09:33:57;15.00;99.90
26691;DHT22;14307;51.718;8.938;2022-10-23T09:36:26;15.20;99.90
26691;DHT22;14307;51.718;8.938;2022-10-23T09:38:56;15.40;99.90
26691;DHT22;14307;51.718;8.938;2022-10-23T09:41:34;15.50;99.90
26691;DHT22;14307;51.718;8.938;2022-10-23T09:44:21;15.60;99.90
26691;DHT22;14307;51.718;8.938;2022-10-23T09:46:50;15.80;99.90
26691;DHT22;14307;51.718;8.938;2022-10-23T09:49:24;15.80;99.90
26691;DHT22;14307;51.718;8.938;2022-10-23T09:54:58;15.90;99.90
26691;DHT22;14307;51.718;8.938;2022-10-23T10:00:02;16.00;99.90
26691;DHT22;14307;51.718;8.938;2022-10-23T10:02:37;16.10;99.90
26691;DHT22;14307;51.718;8.938;2022-10-23T10:05:32;16.00;99.90
26691;DHT22;14307;51.718;8.938;2022-10-23T10:08:20;15.90;99.90
26691;DHT22;14307;51.718;8.938;2022-10-23T10:10:56;15.90;99.90
26691;DHT22;14307;51.718;8.938;2022-10-23T10:16:31;16.00;99.90
26691;DHT22;14307;51.718;8.938;2022-10-23T10:22:11;15.70;99.90
26691;DHT22;14307;51.718;8.938;2022-10-23T10:24:55;15.70;99.90
26691;DHT22;14307;51.718;8.938;2022-10-23T10:30:23;15.70;99.90
26691;DHT22;14307;51.718;8.938;2022-10-23T10:32:53;16.00;99.90
26691;DHT22;14307;51.718;8.938;2022-10-23T10:41:18;16.30;99.90
26691;DHT22;14307;51.718;8.938;2022-10-23T10:44:05;16.30;99.90
26691;DHT22;14307;51.718;8.938;2022-10-23T10:52:24;16.30;99.90
26691;DHT22;14307;51.718;8.938;2022-10-23T10:57:55;16.30;99.90
26691;DHT22;14307;51.718;8.938;2022-10-23T11:00:27;16.30;99.90
26691;DHT22;14307;51.718;8.938;2022-10-23T11:02:59;16.10;99.90
26691;DHT22;14307;51.718;8.938;2022-10-23T11:05:37;16.30;99.90
26691;DHT22;14307;51.718;8.938;2022-10-23T11:08:28;16.30;99.90
26691;DHT22;14307;51.718;8.938;2022-10-23T11:11:31;16.40;99.90
26691;DHT22;14307;51.718;8.938;2022-10-23T11:13:58;16.30;99.90
26691;DHT22;14307;51.718;8.938;2022-10-23T11:16:33;16.20;99.90
26691;DHT22;14307;51.718;8.938;2022-10-23T11:19:24;16.00;99.90
26691;DHT22;14307;51.718;8.938;2022-10-23T11:24:37;15.70;99.90
26691;DHT22;14307;51.718;8.938;2022-10-23T11:27:36;15.70;99.90
26691;DHT22;14307;51.718;8.938;2022-10-23T11:35:39;16.40;99.90
26691;DHT22;14307;51.718;8.938;2022-10-23T11:38:29;16.30;99.90
26691;DHT22;14307;51.718;8.938;2022-10-23T11:40:59;16.40;99.90
26691;DHT22;14307;51.718;8.938;2022-10-23T11:43:52;16.50;99.90
26691;DHT22;14307;51.718;8.938;2022-10-23T11:48:48;16.70;99.90
26691;DHT22;14307;51.718;8.938;2022-10-23T11:51:36;16.80;99.90
26691;DHT22;14307;51.718;8.938;2022-10-23T12:07:35;17.00;99.90
26691;DHT22;14307;51.718;8.938;2022-10-23T12:10:27;16.90;99.90
26691;DHT22;14307;51.718;8.938;2022-10-23T12:13:03;16.80;99.90
26691;DHT22;14307;51.718;8.938;2022-10-23T12:15:32;16.70;99.90
26691;DHT22;14307;51.718;8.938;2022-10-23T12:18:12;16.70;99.90
26691;DHT22;14307;51.718;8.938;2022-10-23T12:21:14;16.50;99.90
26691;DHT22;14307;51.718;8.938;2022-10-23T12:38:03;16.20;99.90
26691;DHT22;14307;51.718;8.938;2022-10-23T12:40:32;16.20;99.90
26691;DHT22;14307;51.718;8.938;2022-10-23T12:43:00;16.20;99.90
26691;DHT22;14307;51.718;8.938;2022-10-23T12:45:31;16.20;99.90
26691;DHT22;14307;51.718;8.938;2022-10-23T12:47:59;16.10;99.90
26691;DHT22;14307;51.718;8.938;2022-10-23T12:50:28;16.10;99.90
26691;DHT22;14307;51.718;8.938;2022-10-23T12:53:00;16.10;99.90
26691;DHT22;14307;51.718;8.938;2022-10-23T12:55:30;16.20;99.90
26691;DHT22;14307;51.718;8.938;2022-10-23T12:58:01;16.10;99.90
26691;DHT22;14307;51.718;8.938;2022-10-23T13:00:28;16.20;99.90
26691;DHT22;14307;51.718;8.938;2022-10-23T13:02:59;16.30;99.90
26691;DHT22;14307;51.718;8.938;2022-10-23T13:05:27;16.40;99.90
26691;DHT22;14307;51.718;8.938;2022-10-23T13:07:54;16.50;99.90
26691;DHT22;14307;51.718;8.938;2022-10-23T13:10:35;16.60;99.90
26691;DHT22;14307;51.718;8.938;2022-10-23T13:13:06;16.30;99.90
26691;DHT22;14307;51.718;8.938;2022-10-23T13:15:51;16.40;99.90
26691;DHT22;14307;51.718;8.938;2022-10-23T13:18:18;16.30;99.90
26691;DHT22;14307;51.718;8.938;2022-10-23T13:20:56;16.20;99.90
26691;DHT22;14307;51.718;8.938;2022-10-23T13:23:28;16.10;99.90
26691;DHT22;14307;51.718;8.938;2022-10-23T13:26:03;16.00;99.90
26691;DHT22;14307;51.718;8.938;2022-10-23T13:28:31;16.00;99.90
26691;DHT22;14307;51.718;8.938;2022-10-23T13:33:42;15.90;99.90
26691;DHT22;14307;51.718;8.938;2022-10-23T13:38:57;16.00;99.90
26691;DHT22;14307;51.718;8.938;2022-10-23T13:41:27;16.00;99.90
26691;DHT22;14307;51.718;8.938;2022-10-23T13:43:54;15.90;99.90
26691;DHT22;14307;51.718;8.938;2022-10-23T13:46:23;15.90;99.90
26691;DHT22;14307;51.718;8.938;2022-10-23T13:48:51;15.90;99.90
26691;DHT22;14307;51.718;8.938;2022-10-23T13:53:51;16.10;99.90
26691;DHT22;14307;51.718;8.938;2022-10-23T13:56:19;16.30;99.90
26691;DHT22;14307;51.718;8.938;2022-10-23T13:58:47;16.50;99.90
26691;DHT22;14307;51.718;8.938;2022-10-23T14:01:33;16.50;99.90
26691;DHT22;14307;51.718;8.938;2022-10-23T14:04:04;16.50;99.90
26691;DHT22;14307;51.718;8.938;2022-10-23T14:06:31;16.50;99.90
26691;DHT22;14307;51.718;8.938;2022-10-23T14:09:01;16.50;99.90
26691;DHT22;14307;51.718;8.938;2022-10-23T14:11:29;16.50;99.90
26691;DHT22;14307;51.718;8.938;2022-10-23T14:13:56;16.40;99.90
26691;DHT22;14307;51.718;8.938;2022-10-23T14:16:23;16.50;99.90
26691;DHT22;14307;51.718;8.938;2022-10-23T14:18:49;16.30;99.90
26691;DHT22;14307;51.718;8.938;2022-10-23T14:21:19;16.30;99.90
26691;DHT22;14307;51.718;8.938;2022-10-23T14:23:47;16.40;99.90
26691;DHT22;14307;51.718;8.938;2022-10-23T14:26:16;16.30;99.90
26691;DHT22;14307;51.718;8.938;2022-10-23T14:28:43;16.30;99.90
26691;DHT22;14307;51.718;8.938;2022-10-23T14:31:12;16.30;99.90
26691;DHT22;14307;51.718;8.938;2022-10-23T14:33:40;16.20;99.90
26691;DHT22;14307;51.718;8.938;2022-10-23T14:36:07;16.10;99.90
26691;DHT22;14307;51.718;8.938;2022-10-23T14:38:34;16.10;99.90
26691;DHT22;14307;51.718;8.938;2022-10-23T14:41:01;16.10;99.90
26691;DHT22;14307;51.718;8.938;2022-10-23T14:43:29;16.10;99.90
26691;DHT22;14307;51.718;8.938;2022-10-23T14:45:55;16.20;99.90
26691;DHT22;14307;51.718;8.938;2022-10-23T14:48:22;16.10;99.90
26691;DHT22;14307;51.718;8.938;2022-10-23T14:50:48;16.00;99.90
26691;DHT22;14307;51.718;8.938;2022-10-23T14:53:15;16.00;99.90
26691;DHT22;14307;51.718;8.938;2022-10-23T14:55:42;16.00;99.90
26691;DHT22;14307;51.718;8.938;2022-10-23T14:58:09;15.90;99.90
26691;DHT22;14307;51.718;8.938;2022-10-23T15:00:35;15.80;99.90
26691;DHT22;14307;51.718;8.938;2022-10-23T15:03:02;15.80;99.90
26691;DHT22;14307;51.718;8.938;2022-10-23T15:05:29;15.80;99.90
26691;DHT22;14307;51.718;8.938;2022-10-23T15:07:56;15.80;99.90
26691;DHT22;14307;51.718;8.938;2022-10-23T15:10:24;15.70;99.90
26691;DHT22;14307;51.718;8.938;2022-10-23T15:12:51;15.70;99.90
26691;DHT22;14307;51.718;8.938;2022-10-23T15:15:17;15.70;99.90
26691;DHT22;14307;51.718;8.938;2022-10-23T15:17:44;15.80;99.90
26691;DHT22;14307;51.718;8.938;2022-10-23T15:20:11;15.70;99.90
26691;DHT22;14307;51.718;8.938;2022-10-23T15:22:37;15.70;99.90
26691;DHT22;14307;51.718;8.938;2022-10-23T15:25:05;15.60;99.90
26691;DHT22;14307;51.718;8.938;2022-10-23T15:27:31;15.60;99.90
26691;DHT22;14307;51.718;8.938;2022-10-23T15:29:58;15.60;99.90
26691;DHT22;14307;51.718;8.938;2022-10-23T15:32:25;15.60;99.90
26691;DHT22;14307;51.718;8.938;2022-10-23T15:34:51;15.50;99.90
26691;DHT22;14307;51.718;8.938;2022-10-23T15:37:19;15.40;99.90
26691;DHT22;14307;51.718;8.938;2022-10-23T15:39:45;15.40;99.90
26691;DHT22;14307;51.718;8.938;2022-10-23T15:42:12;15.40;99.90
26691;DHT22;14307;51.718;8.938;2022-10-23T15:44:39;15.40;99.90
26691;DHT22;14307;51.718;8.938;2022-10-23T15:47:06;15.40;99.90
26691;DHT22;14307;51.718;8.938;2022-10-23T15:49:33;15.30;99.90
26691;DHT22;14307;51.718;8.938;2022-10-23T15:52:00;15.30;99.90
26691;DHT22;14307;51.718;8.938;2022-10-23T15:54:27;15.30;99.90
26691;DHT22;14307;51.718;8.938;2022-10-23T15:56:59;15.30;99.90
26691;DHT22;14307;51.718;8.938;2022-10-23T15:59:28;15.30;99.90
26691;DHT22;14307;51.718;8.938;2022-10-23T16:01:55;15.30;99.90
26691;DHT22;14307;51.718;8.938;2022-10-23T16:04:22;15.20;99.90
26691;DHT22;14307;51.718;8.938;2022-10-23T16:06:49;15.30;99.90
26691;DHT22;14307;51.718;8.938;2022-10-23T16:09:16;15.20;99.90
26691;DHT22;14307;51.718;8.938;2022-10-23T16:11:43;15.20;99.90
26691;DHT22;14307;51.718;8.938;2022-10-23T16:14:12;15.20;99.90
26691;DHT22;14307;51.718;8.938;2022-10-23T16:16:40;15.10;99.90
26691;DHT22;14307;51.718;8.938;2022-10-23T16:19:08;15.10;99.90
26691;DHT22;14307;51.718;8.938;2022-10-23T16:21:35;15.10;99.90
26691;DHT22;14307;51.718;8.938;2022-10-23T16:24:04;15.10;99.90
26691;DHT22;14307;51.718;8.938;2022-10-23T16:26:32;15.00;99.90
26691;DHT22;14307;51.718;8.938;2022-10-23T16:29:02;15.00;99.90
26691;DHT22;14307;51.718;8.938;2022-10-23T16:31:29;15.00;99.90
26691;DHT22;14307;51.718;8.938;2022-10-23T16:33:57;15.00;99.90
26691;DHT22;14307;51.718;8.938;2022-10-23T16:36:25;15.00;99.90
26691;DHT22;14307;51.718;8.938;2022-10-23T16:39:17;15.00;99.90
26691;DHT22;14307;51.718;8.938;2022-10-23T16:42:03;15.00;99.90
26691;DHT22;14307;51.718;8.938;2022-10-23T16:44:50;15.10;99.90
26691;DHT22;14307;51.718;8.938;2022-10-23T16:47:17;15.10;99.90
26691;DHT22;14307;51.718;8.938;2022-10-23T16:49:44;15.10;99.90
26691;DHT22;14307;51.718;8.938;2022-10-23T16:52:11;15.10;99.90
26691;DHT22;14307;51.718;8.938;2022-10-23T16:54:37;15.10;99.90
26691;DHT22;14307;51.718;8.938;2022-10-23T16:57:04;15.10;99.90
26691;DHT22;14307;51.718;8.938;2022-10-23T16:59:31;15.10;99.90
26691;DHT22;14307;51.718;8.938;2022-10-23T17:01:57;15.00;99.90
26691;DHT22;14307;51.718;8.938;2022-10-23T17:04:24;15.00;99.90
26691;DHT22;14307;51.718;8.938;2022-10-23T17:06:51;14.90;99.90
26691;DHT22;14307;51.718;8.938;2022-10-23T17:09:17;14.80;99.90
26691;DHT22;14307;51.718;8.938;2022-10-23T17:11:45;14.70;99.90
26691;DHT22;14307;51.718;8.938;2022-10-23T17:14:17;14.70;99.90
26691;DHT22;14307;51.718;8.938;2022-10-23T17:16:49;14.70;99.90
26691;DHT22;14307;51.718;8.938;2022-10-23T17:19:19;14.50;99.90
26691;DHT22;14307;51.718;8.938;2022-10-23T17:22:06;14.50;99.90
26691;DHT22;14307;51.718;8.938;2022-10-23T17:24:39;14.50;99.90
26691;DHT22;14307;51.718;8.938;2022-10-23T17:27:05;14.50;99.90
26691;DHT22;14307;51.718;8.938;2022-10-23T17:29:32;14.50;99.90
26691;DHT22;14307;51.718;8.938;2022-10-23T17:31:59;14.50;99.90
26691;DHT22;14307;51.718;8.938;2022-10-23T17:34:26;14.50;99.90
26691;DHT22;14307;51.718;8.938;2022-10-23T17:36:54;14.50;99.90
26691;DHT22;14307;51.718;8.938;2022-10-23T17:39:24;14.50;99.90
26691;DHT22;14307;51.718;8.938;2022-10-23T17:41:52;14.50;99.90
26691;DHT22;14307;51.718;8.938;2022-10-23T17:44:18;14.60;99.90
26691;DHT22;14307;51.718;8.938;2022-10-23T17:46:49;14.60;99.90
26691;DHT22;14307;51.718;8.938;2022-10-23T17:49:19;14.50;99.90
26691;DHT22;14307;51.718;8.938;2022-10-23T17:51:50;14.60;99.90
26691;DHT22;14307;51.718;8.938;2022-10-23T17:54:17;14.60;99.90
26691;DHT22;14307;51.718;8.938;2022-10-23T17:56:44;14.60;99.90
26691;DHT22;14307;51.718;8.938;2022-10-23T17:59:12;14.60;99.90
26691;DHT22;14307;51.718;8.938;2022-10-23T18:01:40;14.60;99.90
26691;DHT22;14307;51.718;8.938;2022-10-23T18:04:09;14.50;99.90